SYF weather

Silva Bay Seaplane Base
Gabriola Island, British Columbia, Canada

Public forecast

Using degrees Celsius for public forecast. Weather courtesy of forecast.io.

Closest aviation weather report (METAR) to Silva Bay Seaplane Base

Report is more than 2 hours old.

Closest report is Nanaimo Airport, 8.9 nm (16.5 km) SW. Retrieved 2020/08/06 04:00 UTC (2 hours ago):

CYCD 060400Z 26005KT 30SM FEW150 SCT250 23/12 A2977 RMK AC2CI1 LAST STFD OBS/NEXT 061300Z SLP082 DENSITY ALT 1300FT

Closest aviation forecast (TAF) to Silva Bay Seaplane Base

Forecast is more than 6 hours old.

Closest forecast is Nanaimo Airport, 8.9 nm (16.5 km) SW. Retrieved 2020-08-06 00:00 UTC (6 hours ago):

TAF CYCD 052338Z 0600/0604 08008KT P6SM FEW040 BECMG 0602/0604 VRB03KT RMK NXT FCST WILL BE ISSUED AT 061445Z